Time;durP1;ratioP1;P1;durP2;ratioP2;P2;SDS_P1;SDS_P2;PMS_P1;PMS_P2;Temp;Humidity;BMP_temperature;BMP_pressure;BME280_temperature;BME280_humidity;BME280_pressure;Samples;Min_cycle;Max_cycle;Signal;HPM_P1;HPM_P2
2023/10/29 00:01:34;;;;;;;;;;;;;;;12.66;79.75;99940.78;5449131;32;33190;-71
2023/10/29 00:05:09;;;;;;;;;;;;;;;13.21;77.72;99932.44;5455313;32;33047;-73
2023/10/29 00:08:25;;;;;;;;;;;;;;;13.84;73.70;99948.09;5447997;32;35476;-74
2023/10/29 00:11:27;;;;;;;;;;;;;;;13.61;74.69;99952.12;5438874;32;35235;-72
2023/10/29 00:14:30;;;;;;;;;;;;;;;13.15;77.33;99945.97;5446455;32;34927;-72
2023/10/29 00:17:33;;;;;;;;;;;;;;;12.08;82.10;99963.16;5466603;32;35590;-72
2023/10/29 00:20:35;;;;;;;;;;;;;;;13.21;77.69;99953.56;5461494;32;34287;-73
2023/10/29 00:23:37;;;;;;;;;;;;;;;13.52;74.91;99953.50;5450642;32;34969;-73
2023/10/29 00:26:40;;;;;;;;;;;;;;;13.64;74.42;99951.06;5461348;32;34277;-72
2023/10/29 00:29:42;;;;;;;;;;;;;;;13.71;73.64;99945.34;5442426;32;34628;-73
2023/10/29 00:32:44;;;;;;;;;;;;;;;13.63;73.28;99931.75;5465685;32;34829;-74
2023/10/29 00:35:46;;;;;;;;;;;;;;;13.20;75.62;99946.53;5458862;32;34700;-72
2023/10/29 00:38:48;;;;;;;;;;;;;;;12.57;79.31;99954.47;5463417;32;34441;-72
2023/10/29 00:41:50;;;;;;;;;;;;;;;13.17;77.79;99952.84;5443914;32;35915;-72
2023/10/29 00:44:53;;;;;;;;;;;;;;;12.59;80.04;99950.78;5463627;32;35949;-73
2023/10/29 00:47:55;;;;;;;;;;;;;;;13.50;75.78;99947.44;5446023;32;34958;-73
2023/10/29 00:50:57;;;;;;;;;;;;;;;13.51;75.49;99935.94;5445586;32;34879;-72
2023/10/29 00:53:59;;;;;;;;;;;;;;;13.69;74.11;99935.81;5464554;32;34541;-71
2023/10/29 00:57:02;;;;;;;;;;;;;;;12.95;76.48;99937.38;5457936;32;35523;-73
2023/10/29 01:00:06;;;;;;;;;;;;;;;13.10;77.55;99938.28;5443788;32;34791;-72
2023/10/29 01:03:08;;;;;;;;;;;;;;;12.28;82.12;99946.31;5438010;32;35750;-71
2023/10/29 01:06:10;;;;;;;;;;;;;;;12.02;85.17;99928.41;5461367;32;34578;-72
2023/10/29 01:09:13;;;;;;;;;;;;;;;12.64;80.54;99926.81;5444477;32;35657;-74
2023/10/29 01:12:16;;;;;;;;;;;;;;;11.92;84.19;99928.88;5445033;32;35194;-72
2023/10/29 01:15:18;;;;;;;;;;;;;;;12.54;83.07;99930.88;5444295;32;35023;-73
2023/10/29 01:18:20;;;;;;;;;;;;;;;13.00;79.40;99939.75;5460146;32;36076;-72
2023/10/29 01:21:23;;;;;;;;;;;;;;;12.73;78.87;99942.13;5465023;32;35706;-72
2023/10/29 01:24:26;;;;;;;;;;;;;;;12.44;80.61;99951.62;5445435;32;34574;-72
2023/10/29 01:27:29;;;;;;;;;;;;;;;12.32;80.85;99953.13;5462799;32;34965;-73
2023/10/29 01:30:31;;;;;;;;;;;;;;;12.61;79.40;99945.44;5457498;32;34468;-73
2023/10/29 01:33:33;;;;;;;;;;;;;;;13.21;75.57;99953.56;5460222;32;35171;-71
2023/10/29 01:36:35;;;;;;;;;;;;;;;12.90;75.36;99944.69;5464394;32;34835;-71
2023/10/29 01:39:38;;;;;;;;;;;;;;;12.28;79.45;99951.59;5458169;32;34319;-71
2023/10/29 01:42:40;;;;;;;;;;;;;;;12.72;78.62;99953.63;5448398;32;34366;-71
2023/10/29 01:45:42;;;;;;;;;;;;;;;12.25;79.80;99961.44;5460590;32;34294;-73
2023/10/29 01:48:44;;;;;;;;;;;;;;;11.91;83.09;99964.06;5464240;32;35461;-73
2023/10/29 01:51:47;;;;;;;;;;;;;;;12.65;78.93;99966.28;5461597;32;34647;-72
2023/10/29 01:54:49;;;;;;;;;;;;;;;12.12;80.01;99955.97;5445492;32;35002;-73
2023/10/29 01:57:51;;;;;;;;;;;;;;;11.62;83.52;99956.75;5465541;32;35376;-72
2023/10/29 02:00:55;;;;;;;;;;;;;;;11.21;86.98;99961.41;5443502;32;35582;-73
2023/10/29 02:03:57;;;;;;;;;;;;;;;11.12;86.78;99960.06;5461621;32;34420;-71
2023/10/29 02:06:59;;;;;;;;;;;;;;;11.61;85.25;99970.84;5459453;32;35512;-72
2023/10/29 02:10:02;;;;;;;;;;;;;;;11.01;88.31;99983.38;5446385;32;35514;-72
2023/10/29 02:13:04;;;;;;;;;;;;;;;11.44;86.34;99978.69;5461373;32;35402;-73
2023/10/29 02:16:06;;;;;;;;;;;;;;;11.37;88.09;99983.41;5460051;32;34806;-73
2023/10/29 02:19:08;;;;;;;;;;;;;;;11.43;87.17;99987.53;5448355;32;34797;-72
2023/10/29 02:22:10;;;;;;;;;;;;;;;11.23;86.87;99981.44;5459635;32;35173;-71
2023/10/29 02:25:12;;;;;;;;;;;;;;;11.14;87.89;99984.50;5463257;32;34636;-72
2023/10/29 02:28:14;;;;;;;;;;;;;;;11.06;89.43;99987.50;5453911;32;34487;-73
2023/10/29 02:31:17;;;;;;;;;;;;;;;11.48;86.67;99989.00;5462133;32;34690;-71
2023/10/29 02:34:19;;;;;;;;;;;;;;;11.07;87.99;99997.09;5462182;32;34961;-73
2023/10/29 02:37:21;;;;;;;;;;;;;;;11.11;88.36;99990.78;5460194;32;35433;-72
2023/10/29 02:40:23;;;;;;;;;;;;;;;11.26;87.39;99991.81;5464304;32;35234;-72
2023/10/29 02:43:26;;;;;;;;;;;;;;;11.10;89.08;99985.59;5456570;32;34439;-73
2023/10/29 02:46:30;;;;;;;;;;;;;;;11.05;88.45;99982.31;5445445;32;35201;-71
2023/10/29 02:49:32;;;;;;;;;;;;;;;10.87;89.84;100001.59;5458455;32;34407;-71
2023/10/29 02:52:34;;;;;;;;;;;;;;;10.75;89.66;99995.13;5446813;32;34814;-72
2023/10/29 02:55:37;;;;;;;;;;;;;;;11.08;90.44;99995.34;5462933;32;34385;-72
2023/10/29 02:58:39;;;;;;;;;;;;;;;10.81;91.40;99985.16;5459097;32;34407;-71
2023/10/29 03:01:41;;;;;;;;;;;;;;;11.23;90.01;99978.81;5445757;32;34752;-72
2023/10/29 03:04:43;;;;;;;;;;;;;;;11.07;89.22;99970.78;5439096;32;35371;-72
2023/10/29 03:07:46;;;;;;;;;;;;;;;11.25;89.33;99976.09;5464043;32;34997;-72
2023/10/29 03:10:49;;;;;;;;;;;;;;;11.42;86.11;99991.09;5442514;32;35432;-74
2023/10/29 03:13:51;;;;;;;;;;;;;;;11.12;87.93;99989.00;5460316;32;35499;-71
2023/10/29 03:16:54;;;;;;;;;;;;;;;11.79;84.05;99980.44;5460827;32;35387;-72
2023/10/29 03:19:56;;;;;;;;;;;;;;;11.02;88.69;99998.25;5456664;32;35170;-71
2023/10/29 03:22:58;;;;;;;;;;;;;;;11.05;88.69;99998.97;5463567;32;35012;-72
2023/10/29 03:26:02;;;;;;;;;;;;;;;10.90;90.28;99991.78;5455253;32;33700;-72
2023/10/29 03:29:04;;;;;;;;;;;;;;;11.02;88.00;99998.25;5449270;32;35429;-73
2023/10/29 03:32:06;;;;;;;;;;;;;;;11.55;86.12;99998.31;5469125;32;34315;-71
2023/10/29 03:35:08;;;;;;;;;;;;;;;11.72;84.34;99993.97;5460994;32;34834;-73
2023/10/29 03:38:11;;;;;;;;;;;;;;;11.99;81.13;99989.16;5465551;32;34882;-72
2023/10/29 03:41:20;;;;;;;;;;;;;;;10.92;86.08;99989.09;5471514;32;34744;-72
2023/10/29 03:44:22;;;;;;;;;;;;;;;11.14;86.62;99995.03;5465932;32;34364;-71
2023/10/29 03:47:24;;;;;;;;;;;;;;;11.20;85.43;99981.59;5461408;32;35669;-71
2023/10/29 03:50:27;;;;;;;;;;;;;;;11.27;85.63;99988.28;5476412;32;34348;-73
2023/10/29 03:53:29;;;;;;;;;;;;;;;11.12;85.02;99989.84;5461583;32;34725;-71
2023/10/29 03:56:31;;;;;;;;;;;;;;;11.21;85.49;99987.72;5460510;32;35432;-72
2023/10/29 03:59:33;;;;;;;;;;;;;;;10.79;87.24;99986.19;5450680;32;34939;-72
2023/10/29 04:02:36;;;;;;;;;;;;;;;11.53;83.87;99978.25;5454866;32;35445;-72
2023/10/29 04:05:38;;;;;;;;;;;;;;;11.53;82.05;99988.78;5463506;32;35221;-72
2023/10/29 04:08:40;;;;;;;;;;;;;;;10.75;86.93;99980.19;5460877;32;35478;-72
2023/10/29 04:11:43;;;;;;;;;;;;;;;10.94;86.71;99981.97;5462227;32;34855;-73
2023/10/29 04:14:45;;;;;;;;;;;;;;;11.05;85.36;99972.66;5460707;32;35004;-72
2023/10/29 04:17:49;;;;;;;;;;;;;;;11.30;83.88;99976.75;5445983;32;34834;-74
2023/10/29 04:20:51;;;;;;;;;;;;;;;11.01;85.63;99979.00;5464820;32;34805;-72
2023/10/29 04:23:54;;;;;;;;;;;;;;;11.00;85.18;99981.69;5460748;32;34377;-71
2023/10/29 04:26:56;;;;;;;;;;;;;;;11.19;84.32;99985.16;5465270;32;34694;-72
2023/10/29 04:29:58;;;;;;;;;;;;;;;11.09;85.47;99986.53;5459371;32;34534;-71
2023/10/29 04:33:01;;;;;;;;;;;;;;;11.22;85.86;99984.16;5464305;32;35102;-71
2023/10/29 04:36:04;;;;;;;;;;;;;;;11.90;82.56;99979.91;5444429;32;35876;-72
2023/10/29 04:39:06;;;;;;;;;;;;;;;11.59;82.95;99993.72;5459567;32;34161;-71
2023/10/29 04:42:08;;;;;;;;;;;;;;;11.54;83.54;99980.81;5451254;32;34388;-72
2023/10/29 04:45:11;;;;;;;;;;;;;;;11.22;84.77;99982.38;5444851;32;35078;-73
2023/10/29 04:48:13;;;;;;;;;;;;;;;12.57;80.40;99979.03;5432808;32;34753;-72
2023/10/29 04:51:16;;;;;;;;;;;;;;;12.76;78.51;99968.34;5445645;32;34515;-72
2023/10/29 04:54:19;;;;;;;;;;;;;;;12.68;80.06;99967.88;5461767;32;34837;-72
2023/10/29 04:57:21;;;;;;;;;;;;;;;12.53;80.45;99969.56;5461977;32;34476;-74
2023/10/29 05:00:23;;;;;;;;;;;;;;;13.28;75.76;99974.25;5460094;32;34851;-72
2023/10/29 05:03:27;;;;;;;;;;;;;;;12.73;76.14;99982.53;5463099;32;34186;-72
2023/10/29 05:06:30;;;;;;;;;;;;;;;13.04;76.88;99985.28;5443464;32;34359;-73
2023/10/29 05:09:33;;;;;;;;;;;;;;;13.24;75.56;99979.75;5451073;32;34503;-71
2023/10/29 05:12:35;;;;;;;;;;;;;;;13.51;73.36;99972.91;5460196;32;35805;-73
2023/10/29 05:15:38;;;;;;;;;;;;;;;13.38;74.28;99973.69;5448853;32;35347;-72
2023/10/29 05:18:40;;;;;;;;;;;;;;;12.96;75.58;99975.16;5463655;32;34823;-73
2023/10/29 05:21:42;;;;;;;;;;;;;;;12.72;76.82;99987.91;5460906;32;34208;-71
2023/10/29 05:24:44;;;;;;;;;;;;;;;13.19;75.49;99987.06;5465528;32;35366;-73
2023/10/29 05:27:53;;;;;;;;;;;;;;;13.57;73.56;99981.41;5437059;32;35350;-71
2023/10/29 05:30:55;;;;;;;;;;;;;;;13.24;75.68;99995.59;5446943;32;35788;-71
2023/10/29 05:33:57;;;;;;;;;;;;;;;13.52;73.83;99998.41;5460690;32;34284;-71
2023/10/29 05:36:59;;;;;;;;;;;;;;;13.63;72.91;100000.41;5461366;32;35073;-73
2023/10/29 05:40:07;;;;;;;;;;;;;;;13.24;75.15;99996.44;5463600;32;35347;-71
2023/10/29 05:43:13;;;;;;;;;;;;;;;13.08;75.33;99997.38;5449889;32;34483;-72
2023/10/29 05:46:16;;;;;;;;;;;;;;;13.53;73.66;100008.00;5464980;32;34134;-71
2023/10/29 05:49:18;;;;;;;;;;;;;;;13.32;74.39;100011.84;5460120;32;34866;-71
2023/10/29 05:52:20;;;;;;;;;;;;;;;13.46;73.52;100011.94;5463452;32;35070;-72
2023/10/29 05:55:22;;;;;;;;;;;;;;;13.11;74.90;100007.75;5459910;32;34958;-71
2023/10/29 05:58:25;;;;;;;;;;;;;;;13.36;74.80;100009.91;5458481;32;34555;-71
2023/10/29 06:01:27;;;;;;;;;;;;;;;13.67;73.18;100009.00;5462683;32;34461;-71
2023/10/29 06:04:29;;;;;;;;;;;;;;;13.73;72.72;100021.84;5457545;32;34895;-73
2023/10/29 06:07:31;;;;;;;;;;;;;;;13.65;72.27;100022.28;5463673;32;34407;-73
2023/10/29 06:10:34;;;;;;;;;;;;;;;13.65;72.72;100014.34;5456547;32;34934;-71
2023/10/29 06:13:36;;;;;;;;;;;;;;;13.65;72.53;100016.13;5463361;32;34397;-73
2023/10/29 06:16:38;;;;;;;;;;;;;;;13.14;74.07;100023.41;5444924;32;35603;-71
2023/10/29 06:19:40;;;;;;;;;;;;;;;12.00;79.87;100038.25;5459229;32;35277;-74
2023/10/29 06:22:43;;;;;;;;;;;;;;;11.86;81.47;100049.47;5464420;32;34994;-73
2023/10/29 06:25:46;;;;;;;;;;;;;;;12.47;80.21;100043.72;5455264;32;34198;-72
2023/10/29 06:28:48;;;;;;;;;;;;;;;12.92;78.31;100043.03;5458516;32;34331;-73
2023/10/29 06:31:50;;;;;;;;;;;;;;;13.11;76.28;100047.31;5459508;32;34912;-73
2023/10/29 06:34:52;;;;;;;;;;;;;;;13.34;75.87;100052.22;5462143;32;35014;-71
2023/10/29 06:37:55;;;;;;;;;;;;;;;13.72;73.78;100054.50;5459395;32;35330;-72
2023/10/29 06:40:57;;;;;;;;;;;;;;;14.09;70.42;100040.81;5444741;32;34571;-72
2023/10/29 06:43:59;;;;;;;;;;;;;;;13.81;71.25;100048.66;5463448;32;34878;-73
2023/10/29 06:47:02;;;;;;;;;;;;;;;13.60;71.62;100052.56;5459196;32;35449;-71
2023/10/29 06:50:04;;;;;;;;;;;;;;;14.55;68.65;100048.66;5463311;32;35102;-72
2023/10/29 06:53:07;;;;;;;;;;;;;;;14.83;66.56;100052.28;5429101;32;943573;-72
2023/10/29 06:56:10;;;;;;;;;;;;;;;14.70;66.77;100060.13;5473311;32;34938;-73
2023/10/29 06:59:12;;;;;;;;;;;;;;;14.56;67.20;100068.91;5445441;32;34590;-72
2023/10/29 07:02:14;;;;;;;;;;;;;;;14.44;68.12;100071.41;5455949;32;35924;-72
2023/10/29 07:05:16;;;;;;;;;;;;;;;14.04;69.47;100079.91;5461279;32;34378;-73
2023/10/29 07:08:19;;;;;;;;;;;;;;;13.93;70.59;100079.66;5440103;32;34820;-74
2023/10/29 07:11:21;;;;;;;;;;;;;;;14.48;69.77;100065.84;5450854;32;34993;-71
2023/10/29 07:14:23;;;;;;;;;;;;;;;14.02;71.62;100071.19;5461186;32;34810;-73
2023/10/29 07:17:25;;;;;;;;;;;;;;;14.97;67.70;100072.59;5445484;32;34757;-72
2023/10/29 07:20:27;;;;;;;;;;;;;;;14.63;68.33;100082.59;5444268;32;34416;-71
2023/10/29 07:23:29;;;;;;;;;;;;;;;14.31;69.37;100080.06;5461395;32;35093;-73
2023/10/29 07:26:33;;;;;;;;;;;;;;;13.54;72.95;100082.78;5465665;32;34103;-71
2023/10/29 07:29:35;;;;;;;;;;;;;;;14.68;69.21;100066.44;5460706;32;35919;-71
2023/10/29 07:32:37;;;;;;;;;;;;;;;14.57;68.26;100070.59;5466101;32;34486;-73
2023/10/29 07:35:40;;;;;;;;;;;;;;;13.69;72.72;100073.12;5446333;32;34565;-72
2023/10/29 07:38:42;;;;;;;;;;;;;;;13.75;73.97;100073.63;5462970;32;35448;-72
2023/10/29 07:41:44;;;;;;;;;;;;;;;14.56;69.33;100057.47;5445811;32;35963;-72
2023/10/29 07:44:46;;;;;;;;;;;;;;;13.89;71.82;100056.16;5446037;32;35063;-75
2023/10/29 07:47:49;;;;;;;;;;;;;;;13.23;73.96;100058.09;5461519;32;36858;-71
2023/10/29 07:50:51;;;;;;;;;;;;;;;13.88;72.32;100057.94;5460667;32;35193;-72
2023/10/29 07:53:53;;;;;;;;;;;;;;;13.55;73.24;100058.94;5449859;32;34767;-73
2023/10/29 07:56:57;;;;;;;;;;;;;;;14.15;69.59;100057.25;5461280;32;35497;-73
2023/10/29 07:59:59;;;;;;;;;;;;;;;14.56;69.79;100058.31;5462278;32;35094;-74
2023/10/29 08:03:01;;;;;;;;;;;;;;;13.40;74.20;100065.09;5445287;32;35505;-74
2023/10/29 08:06:04;;;;;;;;;;;;;;;13.42;74.40;100070.28;5453714;32;34886;-76
2023/10/29 08:09:06;;;;;;;;;;;;;;;13.29;75.32;100064.81;5465426;32;34737;-72
2023/10/29 08:12:08;;;;;;;;;;;;;;;13.50;74.38;100074.16;5460989;32;34819;-72
2023/10/29 08:15:12;;;;;;;;;;;;;;;14.26;70.68;100060.13;5465081;32;35649;-73
2023/10/29 08:18:14;;;;;;;;;;;;;;;14.20;71.13;100060.50;5459802;32;35956;-72
2023/10/29 08:21:18;;;;;;;;;;;;;;;13.93;71.58;100066.47;5460755;32;34964;-72
2023/10/29 08:24:20;;;;;;;;;;;;;;;14.15;71.50;100067.84;5464126;32;34901;-74
2023/10/29 08:27:23;;;;;;;;;;;;;;;14.56;69.25;100073.34;5458397;32;34975;-74
2023/10/29 08:30:25;;;;;;;;;;;;;;;14.83;67.36;100076.94;5464474;32;35147;-72
2023/10/29 08:33:27;;;;;;;;;;;;;;;15.88;63.65;100072.03;5461285;32;34635;-73
2023/10/29 08:36:30;;;;;;;;;;;;;;;14.94;66.18;100063.06;5451165;32;34480;-73
2023/10/29 08:39:32;;;;;;;;;;;;;;;14.58;67.89;100067.00;5460645;32;34701;-72
2023/10/29 08:42:34;;;;;;;;;;;;;;;14.49;69.65;100062.28;5445522;32;34783;-71
2023/10/29 08:45:37;;;;;;;;;;;;;;;15.82;63.98;100069.78;5465764;32;35024;-74
2023/10/29 08:48:43;;;;;;;;;;;;;;;15.18;66.98;100066.78;5460829;32;34435;-71
2023/10/29 08:51:45;;;;;;;;;;;;;;;15.36;66.88;100062.12;5451952;32;35317;-72
2023/10/29 08:54:48;;;;;;;;;;;;;;;15.12;67.09;100056.59;5460959;32;34262;-74
2023/10/29 08:57:50;;;;;;;;;;;;;;;15.46;66.54;100065.06;5451669;32;35221;-72
2023/10/29 09:00:57;;;;;;;;;;;;;;;15.98;64.41;100062.53;5458580;32;35211;-71
2023/10/29 09:04:00;;;;;;;;;;;;;;;16.02;64.14;100063.16;5458521;32;35429;-73
2023/10/29 09:07:02;;;;;;;;;;;;;;;16.20;63.25;100055.78;5464947;32;34398;-73
2023/10/29 09:10:04;;;;;;;;;;;;;;;16.48;62.56;100054.72;5455540;32;34777;-74
2023/10/29 09:13:07;;;;;;;;;;;;;;;17.37;58.67;100052.00;5460424;32;34322;-74
2023/10/29 09:16:09;;;;;;;;;;;;;;;16.45;61.94;100054.94;5460179;32;35481;-71
2023/10/29 09:19:11;;;;;;;;;;;;;;;16.03;63.67;100066.66;5463696;32;35621;-73
2023/10/29 09:22:13;;;;;;;;;;;;;;;17.38;60.07;100056.34;5461018;32;35435;-73
2023/10/29 09:25:15;;;;;;;;;;;;;;;17.24;60.34;100054.69;5458456;32;34866;-73
2023/10/29 09:28:17;;;;;;;;;;;;;;;17.77;58.31;100047.28;5464819;32;34718;-71
2023/10/29 09:31:20;;;;;;;;;;;;;;;16.67;61.57;100041.03;5446479;32;34201;-72
2023/10/29 09:34:22;;;;;;;;;;;;;;;16.98;61.63;100040.63;5450630;32;34920;-72
2023/10/29 09:37:24;;;;;;;;;;;;;;;17.37;59.90;100036.06;5457055;32;34799;-74
2023/10/29 09:40:26;;;;;;;;;;;;;;;17.04;61.60;100031.38;5463888;32;34303;-72
2023/10/29 09:43:32;;;;;;;;;;;;;;;18.37;57.41;100034.81;5460259;32;34631;-74
2023/10/29 09:46:35;;;;;;;;;;;;;;;18.50;57.48;100037.34;5460118;32;35204;-73
2023/10/29 09:49:38;;;;;;;;;;;;;;;17.83;59.28;100028.22;5464710;32;34655;-74
2023/10/29 09:52:40;;;;;;;;;;;;;;;17.62;60.40;100031.59;5460667;32;35160;-74
2023/10/29 09:55:42;;;;;;;;;;;;;;;17.93;58.90;100024.88;5449941;32;34689;-73
2023/10/29 09:58:44;;;;;;;;;;;;;;;18.16;58.84;100023.13;5460152;32;35146;-74
2023/10/29 10:01:46;;;;;;;;;;;;;;;18.93;56.82;100026.87;5460897;32;34401;-74
2023/10/29 10:04:59;;;;;;;;;;;;;;;19.22;56.20;100016.56;5459392;32;34956;-72
2023/10/29 10:08:01;;;;;;;;;;;;;;;18.25;58.67;100017.97;5445527;32;34534;-72
2023/10/29 10:11:03;;;;;;;;;;;;;;;19.13;56.85;100009.31;5459894;32;34801;-73
2023/10/29 10:14:05;;;;;;;;;;;;;;;18.80;57.36;100003.03;5443346;32;34282;-74
2023/10/29 10:17:11;;;;;;;;;;;;;;;21.78;51.21;99996.22;5464258;32;35205;-73
2023/10/29 10:20:13;;;;;;;;;;;;;;;22.67;45.95;99990.56;5460174;32;35365;-71
2023/10/29 10:23:15;;;;;;;;;;;;;;;22.44;47.26;99990.06;5460177;32;35188;-72
2023/10/29 10:26:27;;;;;;;;;;;;;;;22.29;47.12;99991.53;5459510;32;35321;-73
2023/10/29 10:29:32;;;;;;;;;;;;;;;21.01;49.89;99998.75;5459302;32;35068;-73
2023/10/29 10:32:34;;;;;;;;;;;;;;;21.15;51.22;99989.50;5448809;32;35447;-74
2023/10/29 10:35:43;;;;;;;;;;;;;;;22.14;48.03;99973.22;5459801;32;35453;-73
2023/10/29 10:38:55;;;;;;;;;;;;;;;23.02;45.89;99967.59;5448194;32;34368;-73
2023/10/29 10:42:00;;;;;;;;;;;;;;;21.82;49.00;99968.19;5448305;32;34883;-74
2023/10/29 10:45:02;;;;;;;;;;;;;;;20.96;51.86;99960.91;5458688;32;34327;-73
2023/10/29 10:48:05;;;;;;;;;;;;;;;21.88;49.00;99956.06;5461968;32;35650;-76
2023/10/29 10:51:10;;;;;;;;;;;;;;;22.21;48.26;99949.41;5445488;32;35785;-72
2023/10/29 10:54:12;;;;;;;;;;;;;;;21.88;48.68;99953.38;5464061;32;35639;-73
2023/10/29 10:57:14;;;;;;;;;;;;;;;21.82;48.76;99945.94;5459081;32;35358;-74
2023/10/29 11:00:17;;;;;;;;;;;;;;;21.70;46.55;99961.28;5428767;32;35238;-74
2023/10/29 11:03:19;;;;;;;;;;;;;;;22.30;44.66;99945.03;5442975;32;35492;-71
2023/10/29 11:06:37;;;;;;;;;;;;;;;22.76;43.96;99940.63;5443848;32;34818;-73
2023/10/29 11:09:39;;;;;;;;;;;;;;;22.54;44.31;99950.72;5464019;32;35116;-74
2023/10/29 11:12:42;;;;;;;;;;;;;;;22.79;43.02;99941.16;5445264;32;34987;-73
2023/10/29 11:15:47;;;;;;;;;;;;;;;22.67;43.79;99937.84;5462495;32;34688;-72
2023/10/29 11:18:49;;;;;;;;;;;;;;;22.63;43.91;99936.44;5458928;32;35297;-73
2023/10/29 11:22:11;;;;;;;;;;;;;;;22.96;43.26;99939.53;5457437;32;35021;-75
2023/10/29 11:25:28;;;;;;;;;;;;;;;22.08;45.35;99935.47;5457998;32;34538;-72
2023/10/29 11:28:34;;;;;;;;;;;;;;;21.44;46.21;99947.63;5457573;32;34887;-73
2023/10/29 11:31:36;;;;;;;;;;;;;;;21.66;45.85;99938.50;5472704;32;34882;-72
2023/10/29 11:34:45;;;;;;;;;;;;;;;22.67;43.20;99928.97;5457541;32;34702;-72
2023/10/29 11:38:25;;;;;;;;;;;;;;;21.47;45.28;99935.84;5462385;32;34161;-73
2023/10/29 11:41:54;;;;;;;;;;;;;;;21.43;46.27;99935.25;5450790;32;34167;-72
2023/10/29 11:45:27;;;;;;;;;;;;;;;21.56;46.22;99934.97;5436216;32;34641;-72
2023/10/29 11:48:31;;;;;;;;;;;;;;;21.68;46.09;99936.53;5458089;32;34249;-72
2023/10/29 11:51:33;;;;;;;;;;;;;;;21.59;46.36;99934.72;5461192;32;35249;-74
2023/10/29 11:54:38;;;;;;;;;;;;;;;21.90;46.28;99924.69;5441197;32;34015;-75
2023/10/29 11:57:41;;;;;;;;;;;;;;;22.41;44.29;99920.75;5464120;32;34871;-72
2023/10/29 12:00:43;;;;;;;;;;;;;;;21.69;46.06;99929.34;5442661;32;34378;-72
2023/10/29 12:03:49;;;;;;;;;;;;;;;21.65;46.57;99922.59;5437960;32;34139;-72
2023/10/29 12:06:51;;;;;;;;;;;;;;;21.31;46.38;99913.16;5462239;32;34509;-74
2023/10/29 12:09:59;;;;;;;;;;;;;;;21.02;47.53;99912.28;5441803;32;34992;-73
2023/10/29 12:13:01;;;;;;;;;;;;;;;21.27;47.37;99908.22;5462368;32;35150;-71
2023/10/29 12:16:03;;;;;;;;;;;;;;;21.65;46.56;99903.88;5460472;32;35071;-71
2023/10/29 12:19:06;;;;;;;;;;;;;;;20.92;48.13;99900.72;5464459;32;35453;-71
2023/10/29 12:22:12;;;;;;;;;;;;;;;21.06;48.11;99911.88;5445234;32;34980;-71
2023/10/29 12:25:15;;;;;;;;;;;;;;;20.69;48.85;99898.28;5460344;32;34749;-72
2023/10/29 12:28:17;;;;;;;;;;;;;;;20.40;49.71;99898.12;5449280;32;34718;-73
2023/10/29 12:31:25;;;;;;;;;;;;;;;21.54;46.89;99908.38;5442107;32;34530;-72
2023/10/29 12:34:27;;;;;;;;;;;;;;;22.37;45.21;99898.78;5465351;32;36189;-74
2023/10/29 12:37:30;;;;;;;;;;;;;;;21.91;45.49;99899.63;5460665;32;34730;-73
2023/10/29 12:40:32;;;;;;;;;;;;;;;21.75;46.05;99891.31;5463836;32;35031;-74
2023/10/29 12:43:39;;;;;;;;;;;;;;;22.07;45.63;99889.13;5459725;32;34351;-74
2023/10/29 12:46:50;;;;;;;;;;;;;;;22.29;45.60;99884.47;5458887;32;34712;-73
2023/10/29 12:49:59;;;;;;;;;;;;;;;22.05;45.83;99875.06;5464464;32;35006;-72
2023/10/29 12:53:05;;;;;;;;;;;;;;;22.39;45.30;99874.53;5443215;32;34961;-71
2023/10/29 12:56:08;;;;;;;;;;;;;;;22.46;45.18;99880.13;5462337;32;35083;-71
2023/10/29 12:59:10;;;;;;;;;;;;;;;22.31;45.26;99869.09;5444245;32;34419;-73
2023/10/29 13:02:22;;;;;;;;;;;;;;;22.67;44.19;99865.53;5459900;32;35148;-73
2023/10/29 13:05:25;;;;;;;;;;;;;;;23.03;43.50;99867.44;5448546;32;34815;-72
2023/10/29 13:08:27;;;;;;;;;;;;;;;23.63;41.67;99859.59;5457484;32;34832;-72
2023/10/29 13:11:29;;;;;;;;;;;;;;;23.83;41.45;99862.91;5449986;32;35851;-73
2023/10/29 13:14:33;;;;;;;;;;;;;;;23.32;42.91;99878.78;5460674;32;35489;-73
2023/10/29 13:17:35;;;;;;;;;;;;;;;23.37;42.06;99870.25;5464851;32;34975;-74
2023/10/29 13:20:38;;;;;;;;;;;;;;;23.30;42.30;99855.78;5460433;32;34640;-74
2023/10/29 13:23:41;;;;;;;;;;;;;;;23.92;41.31;99854.75;5460261;32;34989;-73
2023/10/29 13:26:43;;;;;;;;;;;;;;;24.31;40.46;99865.88;5463705;32;35090;-72
2023/10/29 13:29:46;;;;;;;;;;;;;;;25.22;38.53;99867.88;5454926;32;35316;-74
2023/10/29 13:32:48;;;;;;;;;;;;;;;24.29;40.25;99877.78;5448559;32;35029;-72
2023/10/29 13:35:51;;;;;;;;;;;;;;;23.57;42.01;99862.84;5444414;32;34961;-73
2023/10/29 13:38:53;;;;;;;;;;;;;;;22.77;43.86;99875.31;5464190;32;34984;-75
2023/10/29 13:41:56;;;;;;;;;;;;;;;22.32;45.25;99866.25;5460131;32;35271;-74
2023/10/29 13:44:58;;;;;;;;;;;;;;;22.29;45.47;99863.87;5459686;32;34325;-72
2023/10/29 13:48:01;;;;;;;;;;;;;;;22.33;44.86;99867.94;5465067;32;34230;-73
2023/10/29 13:51:06;;;;;;;;;;;;;;;21.97;45.41;99866.94;5459604;32;34916;-72
2023/10/29 13:54:08;;;;;;;;;;;;;;;21.95;45.94;99863.53;5464303;32;35961;-73
2023/10/29 13:57:11;;;;;;;;;;;;;;;22.27;45.25;99854.31;5460334;32;34598;-74
2023/10/29 14:00:13;;;;;;;;;;;;;;;21.83;46.01;99867.38;5431967;32;35088;-73
2023/10/29 14:03:15;;;;;;;;;;;;;;;22.07;45.66;99859.69;5459733;32;35405;-73
2023/10/29 14:06:18;;;;;;;;;;;;;;;22.16;45.09;99856.19;5436059;32;34849;-73
2023/10/29 14:09:21;;;;;;;;;;;;;;;22.32;44.11;99857.38;5464421;32;35266;-72
2023/10/29 14:12:24;;;;;;;;;;;;;;;22.31;44.48;99856.53;5459550;32;35390;-73
2023/10/29 14:15:26;;;;;;;;;;;;;;;22.17;44.85;99867.75;5446079;32;35208;-71
2023/10/29 14:18:29;;;;;;;;;;;;;;;21.95;45.60;99854.66;5459235;32;35362;-73
2023/10/29 14:21:31;;;;;;;;;;;;;;;22.16;45.25;99858.88;5446636;32;34697;-75
2023/10/29 14:24:33;;;;;;;;;;;;;;;21.94;45.47;99861.84;5457978;32;35956;-72
2023/10/29 14:27:36;;;;;;;;;;;;;;;21.87;46.02;99855.41;5442087;32;35023;-74
2023/10/29 14:30:38;;;;;;;;;;;;;;;22.15;45.32;99867.03;5461536;32;34888;-71
2023/10/29 14:33:42;;;;;;;;;;;;;;;21.78;46.48;99854.44;5459262;32;34892;-72
2023/10/29 14:36:44;;;;;;;;;;;;;;;21.82;46.31;99855.00;5462754;32;35535;-73
2023/10/29 14:39:47;;;;;;;;;;;;;;;21.34;47.56;99866.63;5459412;32;35021;-71
2023/10/29 14:42:50;;;;;;;;;;;;;;;21.40;47.50;99871.41;5460835;32;35224;-73
2023/10/29 14:46:02;;;;;;;;;;;;;;;21.33;47.60;99871.13;5462919;32;34301;-72
2023/10/29 14:49:05;;;;;;;;;;;;;;;21.50;47.24;99868.69;5441948;32;34550;-73
2023/10/29 14:52:08;;;;;;;;;;;;;;;21.54;47.03;99865.59;5463301;32;34507;-73
2023/10/29 14:55:10;;;;;;;;;;;;;;;21.29;47.65;99869.69;5469669;32;35062;-72
2023/10/29 14:58:12;;;;;;;;;;;;;;;21.32;47.84;99873.94;5463579;32;34649;-71
2023/10/29 15:01:14;;;;;;;;;;;;;;;21.24;47.97;99877.25;5457288;32;35409;-72
2023/10/29 15:04:16;;;;;;;;;;;;;;;21.32;48.03;99871.28;5466054;32;34411;-72
2023/10/29 15:07:19;;;;;;;;;;;;;;;21.20;48.04;99881.22;5462079;32;34348;-73
2023/10/29 15:10:21;;;;;;;;;;;;;;;20.88;48.80;99876.12;5457568;32;35088;-74
2023/10/29 15:13:23;;;;;;;;;;;;;;;21.14;48.09;99875.59;5463642;32;35189;-71
2023/10/29 15:16:26;;;;;;;;;;;;;;;21.04;48.31;99873.72;5457486;32;34891;-72
2023/10/29 15:19:28;;;;;;;;;;;;;;;21.08;48.06;99864.47;5448576;32;35557;-74
2023/10/29 15:22:38;;;;;;;;;;;;;;;20.86;48.50;99870.06;5458979;32;35217;-73
2023/10/29 15:25:43;;;;;;;;;;;;;;;20.86;48.42;99872.72;5456746;32;35711;-73
2023/10/29 15:28:46;;;;;;;;;;;;;;;20.93;48.38;99870.34;5442215;32;35744;-73
2023/10/29 15:31:48;;;;;;;;;;;;;;;21.06;48.00;99881.63;5458937;32;35531;-73
2023/10/29 15:34:51;;;;;;;;;;;;;;;21.10;47.90;99872.34;5465552;32;34797;-71
2023/10/29 15:37:53;;;;;;;;;;;;;;;21.00;47.99;99868.84;5458914;32;34265;-74
2023/10/29 15:40:55;;;;;;;;;;;;;;;20.59;49.20;99859.19;5449354;32;34292;-71
2023/10/29 15:43:57;;;;;;;;;;;;;;;20.60;49.26;99858.19;5462053;32;35139;-73
2023/10/29 15:46:59;;;;;;;;;;;;;;;20.86;49.01;99866.53;5458771;32;34695;-73
2023/10/29 15:50:03;;;;;;;;;;;;;;;20.98;48.80;99862.75;5463133;32;35241;-72